createdAt,value
2023-02-01T00:01:56.227Z,81.00
2023-02-01T00:03:57.828Z,80.72
2023-02-01T00:06:00.422Z,79.68
2023-02-01T00:08:01.901Z,80.34
2023-02-01T00:10:05.123Z,80.28
2023-02-01T00:12:06.612Z,80.16
2023-02-01T00:14:09.199Z,80.68
2023-02-01T00:16:22.000Z,80.05
2023-02-01T00:18:24.113Z,80.33
2023-02-01T00:20:25.588Z,79.73
2023-02-01T00:22:27.037Z,79.80
2023-02-01T00:24:28.557Z,79.42
2023-02-01T00:26:44.000Z,79.26
2023-02-01T00:28:46.393Z,79.89
2023-02-01T00:30:47.951Z,79.14
2023-02-01T00:32:49.484Z,79.73
2023-02-01T00:34:50.994Z,79.25
2023-02-01T00:36:52.460Z,79.53
2023-02-01T00:38:54.881Z,79.35
2023-02-01T00:41:03.742Z,79.63
2023-02-01T00:43:05.130Z,79.77
2023-02-01T00:45:07.208Z,78.75
2023-02-01T00:47:08.827Z,78.78
2023-02-01T00:49:10.365Z,79.00
2023-02-01T00:51:14.592Z,79.68
2023-02-01T00:53:16.179Z,79.19
2023-02-01T00:55:17.678Z,79.40
2023-02-01T00:57:19.151Z,79.13
2023-02-01T00:59:20.667Z,79.10
2023-02-01T01:01:25.197Z,78.91
2023-02-01T01:03:26.668Z,79.75
2023-02-01T01:05:30.701Z,79.35
2023-02-01T01:07:32.169Z,79.33
2023-02-01T01:09:33.860Z,78.83
2023-02-01T01:11:38.479Z,79.80
2023-02-01T01:13:40.637Z,79.92
2023-02-01T01:15:43.031Z,79.66
2023-02-01T01:17:44.634Z,79.33
2023-02-01T01:19:46.085Z,79.11
2023-02-01T01:21:47.668Z,79.45
2023-02-01T01:23:49.269Z,79.54
2023-02-01T01:25:50.823Z,78.91
2023-02-01T01:27:52.516Z,79.39
2023-02-01T01:29:53.957Z,79.63
2023-02-01T01:31:55.520Z,79.93
2023-02-01T01:33:59.419Z,80.29
2023-02-01T01:36:00.911Z,79.91
2023-02-01T01:38:03.077Z,79.55
2023-02-01T01:40:06.518Z,79.93
2023-02-01T01:42:13.067Z,79.78
2023-02-01T01:44:51.861Z,80.21
2023-02-01T01:46:53.394Z,79.95
2023-02-01T01:49:10.512Z,79.58
2023-02-01T01:51:15.424Z,79.98
2023-02-01T01:53:24.287Z,80.55
2023-02-01T01:55:27.031Z,80.45
2023-02-01T01:57:34.534Z,80.17
2023-02-01T01:59:39.757Z,79.78
2023-02-01T02:01:41.292Z,79.85
2023-02-01T02:03:48.668Z,79.92
2023-02-01T02:05:53.048Z,80.28
2023-02-01T02:07:59.086Z,80.19
2023-02-01T02:10:02.536Z,79.89
2023-02-01T02:12:04.310Z,80.58
2023-02-01T02:14:09.498Z,80.77
2023-02-01T02:16:10.959Z,80.21
2023-02-01T02:18:23.284Z,79.72
2023-02-01T02:20:36.448Z,79.95
2023-02-01T02:22:47.073Z,80.92
2023-02-01T02:25:17.280Z,80.33
2023-02-01T02:27:27.736Z,80.07
2023-02-01T02:29:41.203Z,80.53
2023-02-01T02:32:04.487Z,80.12
2023-02-01T02:34:09.093Z,80.44
2023-02-01T02:36:20.616Z,80.01
2023-02-01T02:38:48.459Z,80.45
2023-02-01T02:41:12.946Z,80.08
2023-02-01T02:43:42.660Z,79.98
2023-02-01T02:46:10.198Z,80.03
2023-02-01T02:48:26.173Z,79.61
2023-02-01T02:51:02.191Z,80.32
2023-02-01T02:53:32.542Z,80.39
2023-02-01T02:55:36.723Z,80.77
2023-02-01T02:58:00.204Z,80.54
2023-02-01T03:00:24.535Z,80.79
2023-02-01T03:02:47.207Z,81.10
2023-02-01T03:04:57.188Z,81.35
2023-02-01T03:06:58.752Z,81.80
2023-02-01T03:09:05.405Z,81.56
2023-02-01T03:11:06.835Z,81.82
2023-02-01T03:13:18.790Z,81.77
2023-02-01T03:15:25.224Z,82.05
2023-02-01T03:17:35.017Z,81.93
2023-02-01T03:19:44.585Z,82.89
2023-02-01T03:24:05.563Z,83.65
2023-02-01T03:26:13.278Z,83.52
2023-02-01T03:28:20.301Z,83.93
2023-02-01T03:30:28.173Z,84.33
2023-02-01T03:32:30.408Z,85.27
2023-02-01T03:34:31.899Z,86.90
2023-02-01T03:37:05.630Z,87.49
2023-02-01T03:39:10.328Z,88.82
2023-02-01T03:41:42.720Z,89.54
2023-02-01T03:43:56.648Z,90.86
2023-02-01T03:46:03.693Z,90.63
2023-02-01T03:48:06.106Z,92.04
2023-02-01T03:50:26.358Z,92.18
2023-02-01T03:52:32.571Z,93.20
2023-02-01T03:54:34.726Z,93.10
2023-02-01T03:56:39.313Z,92.10
2023-02-01T03:58:40.988Z,92.89
2023-02-01T04:00:47.154Z,92.30
2023-02-01T04:02:49.432Z,92.58
2023-02-01T04:04:50.966Z,92.59
2023-02-01T04:06:52.763Z,93.44
2023-02-01T04:08:54.225Z,93.91
2023-02-01T04:10:55.681Z,94.53
2023-02-01T04:12:57.143Z,94.93
2023-02-01T04:14:59.171Z,95.19
2023-02-01T04:17:00.709Z,95.45
2023-02-01T04:19:02.220Z,95.42
2023-02-01T04:21:04.025Z,96.40
2023-02-01T04:23:05.477Z,96.15
2023-02-01T04:25:08.949Z,96.33
2023-02-01T04:27:10.450Z,97.27
2023-02-01T04:29:27.249Z,97.20
2023-02-01T04:31:28.764Z,97.32
2023-02-01T04:33:30.903Z,96.41
2023-02-01T04:35:32.402Z,96.17
2023-02-01T04:37:34.226Z,96.53
2023-02-01T04:39:35.704Z,97.18
2023-02-01T04:41:37.139Z,96.62
2023-02-01T04:43:38.547Z,96.41
2023-02-01T04:45:39.957Z,96.88
2023-02-01T04:47:41.357Z,96.96
2023-02-01T04:49:42.940Z,96.82
2023-02-01T04:51:44.748Z,96.68
2023-02-01T04:53:46.249Z,96.76
2023-02-01T04:55:49.658Z,96.69
2023-02-01T04:57:51.088Z,96.81
2023-02-01T04:59:52.510Z,97.17
2023-02-01T05:01:53.930Z,96.54
2023-02-01T05:03:55.626Z,96.81
2023-02-01T05:05:57.445Z,96.16
2023-02-01T05:07:59.407Z,96.14
2023-02-01T05:10:00.837Z,96.60
2023-02-01T05:12:20.712Z,95.94
2023-02-01T05:14:22.184Z,96.17
2023-02-01T05:16:23.680Z,96.25
2023-02-01T05:18:25.115Z,96.52
2023-02-01T05:20:26.666Z,95.85
2023-02-01T05:22:28.138Z,96.71
2023-02-01T05:24:29.603Z,96.09
2023-02-01T05:26:31.159Z,96.19
2023-02-01T05:28:32.633Z,95.29
2023-02-01T05:30:36.131Z,94.95
2023-02-01T05:32:37.688Z,95.19
2023-02-01T05:34:39.187Z,94.88
2023-02-01T05:36:41.319Z,94.67
2023-02-01T05:38:42.748Z,94.98
2023-02-01T05:40:50.377Z,94.85
2023-02-01T05:42:51.787Z,94.66
2023-02-01T05:44:53.220Z,94.83
2023-02-01T05:46:54.694Z,93.83
2023-02-01T05:48:56.215Z,93.67
2023-02-01T05:50:57.694Z,94.25
2023-02-01T05:52:59.108Z,94.59
2023-02-01T05:55:00.577Z,94.73
2023-02-01T05:57:02.061Z,94.63
2023-02-01T05:59:03.485Z,94.74
2023-02-01T06:01:05.119Z,95.02
2023-02-01T06:03:07.613Z,95.50
2023-02-01T06:05:09.470Z,95.39
2023-02-01T06:07:11.371Z,96.82
2023-02-01T06:09:12.978Z,96.12
2023-02-01T06:11:30.564Z,97.01
2023-02-01T06:13:34.580Z,97.28
2023-02-01T06:15:38.338Z,97.31
2023-02-01T06:17:42.393Z,97.41
2023-02-01T06:19:44.961Z,98.23
2023-02-01T06:21:46.685Z,98.95
2023-02-01T06:23:48.145Z,99.11
2023-02-01T06:25:49.751Z,99.60
2023-02-01T06:27:51.296Z,100.00
2023-02-01T06:29:52.823Z,99.60
2023-02-01T06:31:54.384Z,99.75
2023-02-01T06:33:55.915Z,99.82
2023-02-01T06:35:59.482Z,100.00
2023-02-01T06:38:01.023Z,100.00
2023-02-01T06:40:02.477Z,100.00
2023-02-01T06:42:04.868Z,99.98
2023-02-01T06:44:06.396Z,99.67
2023-02-01T06:46:10.817Z,99.19
2023-02-01T06:48:12.321Z,98.94
2023-02-01T06:50:13.857Z,99.53
2023-02-01T06:52:15.285Z,98.49
2023-02-01T06:54:16.854Z,98.15
2023-02-01T06:56:18.949Z,98.43
2023-02-01T06:58:20.508Z,97.52
2023-02-01T07:00:25.978Z,97.64
2023-02-01T07:02:27.643Z,97.81
2023-02-01T07:04:29.099Z,96.89
2023-02-01T07:06:30.564Z,96.90
2023-02-01T07:08:34.169Z,97.30
2023-02-01T07:10:35.891Z,97.29
2023-02-01T07:12:37.397Z,97.36
2023-02-01T07:14:38.843Z,96.37
2023-02-01T07:16:40.405Z,97.08
2023-02-01T07:18:41.934Z,96.83
2023-02-01T07:20:43.753Z,96.70
2023-02-01T07:22:45.180Z,95.96
2023-02-01T07:24:55.887Z,95.71
2023-02-01T07:26:57.315Z,95.37
2023-02-01T07:28:58.738Z,95.27
2023-02-01T07:31:07.589Z,94.31
2023-02-01T07:33:09.008Z,93.69
2023-02-01T07:35:10.422Z,93.96
2023-02-01T07:37:11.919Z,93.53
2023-02-01T07:39:13.397Z,93.77
2023-02-01T07:41:15.607Z,93.52
2023-02-01T07:43:17.381Z,92.80
2023-02-01T07:45:21.609Z,92.52
2023-02-01T07:47:26.389Z,92.51
2023-02-01T07:49:27.834Z,91.85
2023-02-01T07:51:29.310Z,92.03
2023-02-01T07:53:32.103Z,91.85
2023-02-01T07:55:34.191Z,92.11
2023-02-01T07:57:35.650Z,92.21
2023-02-01T07:59:57.030Z,92.15
2023-02-01T08:01:58.465Z,92.72
2023-02-01T08:04:02.922Z,92.40
2023-02-01T08:06:05.395Z,92.68
2023-02-01T08:08:07.427Z,93.26
2023-02-01T08:10:12.063Z,93.69
2023-02-01T08:12:13.515Z,94.42
2023-02-01T08:14:14.955Z,95.23
2023-02-01T08:16:18.108Z,95.63
2023-02-01T08:18:19.851Z,94.89
2023-02-01T08:20:24.996Z,94.99
2023-02-01T08:22:26.761Z,94.45
2023-02-01T08:24:28.209Z,94.51
2023-02-01T08:26:29.708Z,94.45
2023-02-01T08:28:31.145Z,93.89
2023-02-01T08:30:32.702Z,93.05
2023-02-01T08:32:34.644Z,91.59
2023-02-01T08:34:36.075Z,91.46
2023-02-01T08:36:39.138Z,90.48
2023-02-01T08:38:41.105Z,90.69
2023-02-01T08:40:42.588Z,90.59
2023-02-01T08:42:53.276Z,90.80
2023-02-01T08:44:54.708Z,90.16
2023-02-01T08:46:56.145Z,90.04
2023-02-01T08:48:57.677Z,90.18
2023-02-01T08:51:03.872Z,89.65
2023-02-01T08:53:05.331Z,89.86
2023-02-01T08:55:07.571Z,89.69
2023-02-01T08:57:10.457Z,89.74
2023-02-01T08:59:11.907Z,89.97
2023-02-01T09:01:17.940Z,90.07
2023-02-01T09:03:20.139Z,89.95
2023-02-01T09:05:23.338Z,90.06
2023-02-01T09:07:24.868Z,90.13
2023-02-01T09:09:28.595Z,89.72
2023-02-01T09:11:30.004Z,89.41
2023-02-01T09:13:31.747Z,89.14
2023-02-01T09:15:33.343Z,89.32
2023-02-01T09:17:35.269Z,89.06
2023-02-01T09:19:36.723Z,89.78
2023-02-01T09:21:38.172Z,89.27
2023-02-01T09:23:39.602Z,89.10
2023-02-01T09:25:41.079Z,89.06
2023-02-01T09:27:42.497Z,88.58
2023-02-01T09:29:43.938Z,87.80
2023-02-01T09:31:57.330Z,87.70
2023-02-01T09:34:04.038Z,88.40
2023-02-01T09:36:06.112Z,87.77
2023-02-01T09:38:07.543Z,87.50
2023-02-01T09:40:15.171Z,87.19
2023-02-01T09:42:35.769Z,86.48
2023-02-01T09:45:04.933Z,85.99
2023-02-01T09:47:13.180Z,85.78
2023-02-01T09:49:24.352Z,86.11
2023-02-01T09:51:31.313Z,85.71
2023-02-01T09:53:43.189Z,85.14
2023-02-01T09:55:48.500Z,85.05
2023-02-01T09:58:01.212Z,85.23
2023-02-01T10:00:08.173Z,84.44
2023-02-01T10:02:22.699Z,85.00
2023-02-01T10:04:24.330Z,84.51
2023-02-01T10:06:37.830Z,85.00
2023-02-01T10:09:16.626Z,84.75
2023-02-01T10:11:50.380Z,85.04
2023-02-01T10:14:03.944Z,85.06
2023-02-01T10:16:20.154Z,85.01
2023-02-01T10:18:24.328Z,85.50
2023-02-01T10:20:40.894Z,86.13
2023-02-01T10:23:19.169Z,85.88
2023-02-01T10:25:23.910Z,86.03
2023-02-01T10:27:36.606Z,86.88
2023-02-01T10:29:41.082Z,86.90
2023-02-01T10:31:42.934Z,86.97
2023-02-01T10:33:50.312Z,86.69
2023-02-01T10:36:00.422Z,87.30
2023-02-01T10:38:03.145Z,88.68
2023-02-01T10:40:17.757Z,89.29
2023-02-01T10:42:22.502Z,90.50
2023-02-01T10:44:31.121Z,90.53
2023-02-01T10:46:34.489Z,91.83
2023-02-01T10:48:37.408Z,91.69
2023-02-01T10:50:50.369Z,92.27
2023-02-01T10:53:10.124Z,92.47
2023-02-01T10:55:39.905Z,92.26
2023-02-01T10:57:42.095Z,92.24
2023-02-01T10:59:45.732Z,92.58
2023-02-01T11:01:49.991Z,92.08
2023-02-01T11:03:56.909Z,91.64
2023-02-01T11:05:58.617Z,91.34
2023-02-01T11:08:01.352Z,91.42
2023-02-01T11:10:03.544Z,91.03
2023-02-01T11:12:05.304Z,92.07
2023-02-01T11:14:17.035Z,92.66
2023-02-01T11:16:19.959Z,93.16
2023-02-01T11:18:28.555Z,93.56
2023-02-01T11:20:32.677Z,93.87
2023-02-01T11:22:34.225Z,94.59
2023-02-01T11:24:39.153Z,94.57
2023-02-01T11:26:42.495Z,94.92
2023-02-01T11:28:53.425Z,94.16
2023-02-01T11:30:57.935Z,93.42
2023-02-01T11:33:00.784Z,93.19
2023-02-01T11:35:06.673Z,93.50
2023-02-01T11:37:19.557Z,93.64
2023-02-01T11:39:24.087Z,93.88
2023-02-01T11:41:28.623Z,94.13
2023-02-01T11:43:30.355Z,94.32
2023-02-01T11:45:38.502Z,95.31
2023-02-01T11:47:41.494Z,95.41
2023-02-01T11:49:43.660Z,96.46
2023-02-01T11:52:11.624Z,96.77
2023-02-01T11:54:29.287Z,97.15
2023-02-01T11:57:06.057Z,97.82
2023-02-01T11:59:13.431Z,98.80
2023-02-01T12:01:53.687Z,98.49
2023-02-01T12:04:04.711Z,99.03
2023-02-01T12:06:21.092Z,98.65
2023-02-01T12:08:48.263Z,98.79
2023-02-01T12:10:55.693Z,99.32
2023-02-01T12:12:57.028Z,99.76
2023-02-01T12:15:29.913Z,99.71
2023-02-01T12:18:08.816Z,100.00
2023-02-01T12:20:19.401Z,100.00
2023-02-01T12:22:48.983Z,97.80
2023-02-01T12:25:17.270Z,96.34
2023-02-01T12:27:43.874Z,95.26
2023-02-01T12:30:11.629Z,95.88
2023-02-01T12:32:27.290Z,96.87
2023-02-01T12:34:38.270Z,97.95
2023-02-01T12:36:58.472Z,98.36
2023-02-01T12:39:02.687Z,99.20
2023-02-01T12:41:41.372Z,98.83
2023-02-01T12:43:56.475Z,99.54
2023-02-01T12:46:10.022Z,99.60
2023-02-01T12:48:38.386Z,99.95
2023-02-01T12:50:54.410Z,100.00
2023-02-01T12:53:08.612Z,100.00
2023-02-01T12:55:54.255Z,100.00
2023-02-01T12:58:27.965Z,100.00
2023-02-01T13:00:40.716Z,100.00
2023-02-01T13:02:51.252Z,100.00
2023-02-01T13:05:11.240Z,100.00
2023-02-01T13:07:18.024Z,100.00
2023-02-01T13:09:35.429Z,100.00
2023-02-01T13:11:43.331Z,100.00
2023-02-01T13:13:59.347Z,100.00
2023-02-01T13:16:29.678Z,100.00
2023-02-01T13:18:39.130Z,100.00
2023-02-01T13:20:50.659Z,100.00
2023-02-01T13:23:02.222Z,100.00
2023-02-01T13:25:15.835Z,100.00
2023-02-01T13:27:18.236Z,100.00
2023-02-01T13:29:21.869Z,99.51
2023-02-01T13:31:23.344Z,99.27
2023-02-01T13:33:54.736Z,98.25
2023-02-01T13:36:21.525Z,98.63
2023-02-01T13:39:00.853Z,98.33
2023-02-01T13:41:27.660Z,97.13
2023-02-01T13:43:32.458Z,97.12
2023-02-01T13:45:38.022Z,96.57
2023-02-01T13:47:43.091Z,96.00
2023-02-01T13:49:44.598Z,95.23
2023-02-01T13:51:49.637Z,94.90
2023-02-01T13:53:51.169Z,94.54
2023-02-01T13:55:59.873Z,94.77
2023-02-01T13:58:12.303Z,94.77
2023-02-01T14:00:36.064Z,93.84
2023-02-01T14:02:41.533Z,94.24
2023-02-01T14:04:49.443Z,92.68
2023-02-01T14:06:54.330Z,92.83
2023-02-01T14:09:14.090Z,91.83
2023-02-01T14:11:54.391Z,91.99
2023-02-01T14:13:55.844Z,92.39
2023-02-01T14:16:03.561Z,92.47
2023-02-01T14:18:42.134Z,92.85
2023-02-01T14:20:49.683Z,92.38
2023-02-01T14:22:51.127Z,92.67
2023-02-01T14:24:55.532Z,92.29
2023-02-01T14:27:00.089Z,92.62
2023-02-01T14:29:20.356Z,92.74
2023-02-01T14:31:51.742Z,93.17
2023-02-01T14:33:58.947Z,92.77
2023-02-01T14:36:06.871Z,92.84
2023-02-01T14:38:12.210Z,92.42
2023-02-01T14:40:13.656Z,92.15
2023-02-01T14:42:20.516Z,91.72
2023-02-01T14:44:30.880Z,92.03
2023-02-01T14:47:07.894Z,92.25
2023-02-01T14:49:11.067Z,92.46
2023-02-01T14:51:16.308Z,92.02
2023-02-01T14:53:28.516Z,91.86
2023-02-01T14:55:41.824Z,91.69
2023-02-01T14:57:46.675Z,91.89
2023-02-01T14:59:50.299Z,91.43
2023-02-01T15:01:57.419Z,91.90
2023-02-01T15:04:22.946Z,91.06
2023-02-01T15:06:29.058Z,90.62
2023-02-01T15:08:40.173Z,90.18
2023-02-01T15:10:46.318Z,89.93
2023-02-01T15:12:50.284Z,89.27
2023-02-01T15:15:17.411Z,88.91
2023-02-01T15:17:20.702Z,88.76
2023-02-01T15:19:28.658Z,87.68
2023-02-01T15:21:32.845Z,87.77
2023-02-01T15:23:34.716Z,87.28
2023-02-01T15:25:39.453Z,86.21
2023-02-01T15:27:41.033Z,85.14
2023-02-01T15:29:42.557Z,84.83
2023-02-01T15:31:47.665Z,83.35
2023-02-01T15:33:58.620Z,83.75
2023-02-01T15:36:06.142Z,83.57
2023-02-01T15:38:25.901Z,82.56
2023-02-01T15:40:27.488Z,82.74
2023-02-01T15:42:29.004Z,82.47
2023-02-01T15:44:41.303Z,82.10
2023-02-01T15:46:46.164Z,82.13
2023-02-01T15:48:51.874Z,81.22
2023-02-01T15:50:56.449Z,81.40
2023-02-01T15:52:58.052Z,80.90
2023-02-01T15:55:02.822Z,80.82
2023-02-01T15:57:06.418Z,80.72
2023-02-01T15:59:17.926Z,80.70
2023-02-01T16:01:20.683Z,81.47
2023-02-01T16:03:35.850Z,82.40
2023-02-01T16:05:45.602Z,82.24
2023-02-01T16:07:58.044Z,80.39
2023-02-01T16:10:07.870Z,81.57
2023-02-01T16:12:32.485Z,83.08
2023-02-01T16:14:33.993Z,83.46
2023-02-01T16:16:35.463Z,85.31
2023-02-01T16:18:36.903Z,86.26
2023-02-01T16:20:40.414Z,87.17
2023-02-01T16:22:41.851Z,88.76
2023-02-01T16:24:43.467Z,89.80
2023-02-01T16:26:44.942Z,90.31
2023-02-01T16:28:46.829Z,90.27
2023-02-01T16:30:49.703Z,90.11
2023-02-01T16:32:59.735Z,89.75
2023-02-01T16:35:01.373Z,88.23
2023-02-01T16:37:04.377Z,88.82
2023-02-01T16:39:06.054Z,89.11
2023-02-01T16:41:09.124Z,87.60
2023-02-01T16:43:28.938Z,85.97
2023-02-01T16:45:30.903Z,87.30
2023-02-01T16:47:32.377Z,87.54
2023-02-01T16:49:34.618Z,88.72
2023-02-01T16:51:38.786Z,89.30
2023-02-01T16:53:53.588Z,89.92
2023-02-01T16:55:58.237Z,90.36
2023-02-01T16:57:59.770Z,90.50
2023-02-01T17:00:17.917Z,90.58
2023-02-01T17:02:24.611Z,91.30
2023-02-01T17:04:26.367Z,91.42
2023-02-01T17:06:31.010Z,92.32
2023-02-01T17:08:36.126Z,92.42
2023-02-01T17:10:38.163Z,92.93
2023-02-01T17:12:41.203Z,93.26
2023-02-01T17:14:42.776Z,93.24
2023-02-01T17:16:46.571Z,93.17
2023-02-01T17:19:01.042Z,92.66
2023-02-01T17:21:05.430Z,91.96
2023-02-01T17:23:07.451Z,91.91
2023-02-01T17:25:17.025Z,90.95
2023-02-01T17:27:19.097Z,91.77
2023-02-01T17:29:21.009Z,90.07
2023-02-01T17:31:22.689Z,90.01
2023-02-01T17:33:35.972Z,89.02
2023-02-01T17:35:37.790Z,89.06
2023-02-01T17:37:39.212Z,88.83
2023-02-01T17:39:55.629Z,88.29
2023-02-01T17:41:57.076Z,87.86
2023-02-01T17:43:58.582Z,87.35
2023-02-01T17:46:10.664Z,86.63
2023-02-01T17:48:12.114Z,86.31
2023-02-01T17:50:13.917Z,86.13
2023-02-01T17:52:18.619Z,86.21
2023-02-01T17:54:20.456Z,86.14
2023-02-01T17:56:26.128Z,86.15
2023-02-01T17:58:30.379Z,85.91
2023-02-01T18:00:32.050Z,85.88
2023-02-01T18:02:33.542Z,86.04
2023-02-01T18:04:34.991Z,85.36
2023-02-01T18:06:38.588Z,85.84
2023-02-01T18:08:40.352Z,85.07
2023-02-01T18:10:41.795Z,85.79
2023-02-01T18:12:43.328Z,85.53
2023-02-01T18:14:44.804Z,85.57
2023-02-01T18:16:46.304Z,85.72
2023-02-01T18:18:48.334Z,85.16
2023-02-01T18:20:50.129Z,85.84
2023-02-01T18:22:52.076Z,85.45
2023-02-01T18:24:53.481Z,85.73
2023-02-01T18:26:55.063Z,85.89
2023-02-01T18:28:56.608Z,85.06
2023-02-01T18:30:58.261Z,85.48
2023-02-01T18:33:00.191Z,85.75
2023-02-01T18:35:01.744Z,86.09
2023-02-01T18:37:03.190Z,86.23
2023-02-01T18:39:04.638Z,85.91
2023-02-01T18:41:06.071Z,85.77
2023-02-01T18:43:10.992Z,85.86
2023-02-01T18:45:23.190Z,85.74
2023-02-01T18:47:24.747Z,84.41
2023-02-01T18:49:26.167Z,84.86
2023-02-01T18:51:27.581Z,84.20
2023-02-01T18:53:29.455Z,83.96
2023-02-01T18:55:34.395Z,84.50
2023-02-01T18:57:35.850Z,84.17
2023-02-01T18:59:37.520Z,83.30
2023-02-01T19:01:39.117Z,82.96
2023-02-01T19:03:43.398Z,82.93
2023-02-01T19:05:56.264Z,83.36
2023-02-01T19:07:57.899Z,83.13
2023-02-01T19:09:59.356Z,83.09
2023-02-01T19:12:00.904Z,82.93
2023-02-01T19:14:02.363Z,82.75
2023-02-01T19:16:11.843Z,82.63
2023-02-01T19:18:15.265Z,82.01
2023-02-01T19:20:19.558Z,82.27
2023-02-01T19:22:21.105Z,82.09
2023-02-01T19:24:23.715Z,82.40
2023-02-01T19:26:25.194Z,82.23
2023-02-01T19:28:26.739Z,82.63
2023-02-01T19:30:28.166Z,82.42
2023-02-01T19:32:30.213Z,81.02
2023-02-01T19:34:32.902Z,80.53
2023-02-01T19:36:34.351Z,80.96
2023-02-01T19:38:35.932Z,80.67
2023-02-01T19:40:37.413Z,80.54
2023-02-01T19:42:38.891Z,80.24
2023-02-01T19:44:40.763Z,80.59
2023-02-01T19:46:42.265Z,80.21
2023-02-01T19:48:43.756Z,80.42
2023-02-01T19:50:45.739Z,80.32
2023-02-01T19:52:47.941Z,80.57
2023-02-01T19:54:49.381Z,80.81
2023-02-01T19:56:51.198Z,81.15
2023-02-01T19:58:52.750Z,81.50
2023-02-01T20:00:57.316Z,81.52
2023-02-01T20:02:58.924Z,82.03
2023-02-01T20:05:00.388Z,81.38
2023-02-01T20:07:02.100Z,81.74
2023-02-01T20:09:04.099Z,81.45
2023-02-01T20:11:06.823Z,81.61
2023-02-01T20:13:08.234Z,81.52
2023-02-01T20:15:10.109Z,81.40
2023-02-01T20:17:14.937Z,81.46
2023-02-01T20:19:16.485Z,81.14
2023-02-01T20:21:18.865Z,81.10
2023-02-01T20:23:20.919Z,81.32
2023-02-01T20:25:23.196Z,81.51
2023-02-01T20:27:26.367Z,82.10
2023-02-01T20:29:27.792Z,82.18
2023-02-01T20:31:29.880Z,82.41
2023-02-01T20:33:31.847Z,82.97
2023-02-01T20:35:33.288Z,82.88
2023-02-01T20:37:37.670Z,83.39
2023-02-01T20:39:39.096Z,82.83
2023-02-01T20:41:41.040Z,83.41
2023-02-01T20:43:42.530Z,83.01
2023-02-01T20:45:44.360Z,83.29
2023-02-01T20:47:55.492Z,84.11
2023-02-01T20:49:56.973Z,84.46
2023-02-01T20:51:58.487Z,84.19
2023-02-01T20:53:59.949Z,84.94
2023-02-01T20:56:01.540Z,84.63
2023-02-01T20:58:03.037Z,84.46
2023-02-01T21:00:10.013Z,83.72
2023-02-01T21:02:11.475Z,83.97
2023-02-01T21:04:12.895Z,83.85
2023-02-01T21:06:14.307Z,83.75
2023-02-01T21:08:15.857Z,83.89
2023-02-01T21:10:17.380Z,83.58
2023-02-01T21:12:18.842Z,83.81
2023-02-01T21:14:20.543Z,84.08
2023-02-01T21:16:22.262Z,83.62
2023-02-01T21:18:23.998Z,83.28
2023-02-01T21:20:25.483Z,84.13
2023-02-01T21:22:26.934Z,83.66
2023-02-01T21:24:28.347Z,83.96
2023-02-01T21:26:40.790Z,83.16
2023-02-01T21:28:42.339Z,83.23
2023-02-01T21:30:44.208Z,82.79
2023-02-01T21:32:45.690Z,82.80
2023-02-01T21:34:47.159Z,82.44
2023-02-01T21:36:48.579Z,82.70
2023-02-01T21:38:51.896Z,82.36
2023-02-01T21:41:13.293Z,82.52
2023-02-01T21:43:14.749Z,82.16
2023-02-01T21:45:17.729Z,82.00
2023-02-01T21:47:25.858Z,81.80
2023-02-01T21:49:28.982Z,80.64
2023-02-01T21:51:30.935Z,80.81
2023-02-01T21:53:32.869Z,80.64
2023-02-01T21:55:34.277Z,80.99
2023-02-01T21:57:35.699Z,80.70
2023-02-01T21:59:37.334Z,80.15
2023-02-01T22:01:40.303Z,79.83
2023-02-01T22:03:41.712Z,79.92
2023-02-01T22:05:43.288Z,79.94
2023-02-01T22:07:44.746Z,79.72
2023-02-01T22:09:46.315Z,79.59
2023-02-01T22:11:48.716Z,79.11
2023-02-01T22:13:50.604Z,78.90
2023-02-01T22:15:52.276Z,78.33
2023-02-01T22:17:53.953Z,77.93
2023-02-01T22:19:55.419Z,78.38
2023-02-01T22:21:56.876Z,78.45
2023-02-01T22:23:59.391Z,77.63
2023-02-01T22:26:02.427Z,77.59
2023-02-01T22:28:32.595Z,78.09
2023-02-01T22:30:25.583Z,77.66
2023-02-01T22:32:27.287Z,78.25
2023-02-01T22:34:28.721Z,78.28
2023-02-01T22:36:30.223Z,78.45
2023-02-01T22:38:33.048Z,77.66
2023-02-01T22:40:34.495Z,78.18
2023-02-01T22:42:35.953Z,77.41
2023-02-01T22:44:37.450Z,78.06
2023-02-01T22:46:40.072Z,77.39
2023-02-01T22:48:43.391Z,77.89
2023-02-01T22:50:45.326Z,77.78
2023-02-01T22:52:46.847Z,77.47
2023-02-01T22:54:48.328Z,77.83
2023-02-01T22:56:50.352Z,77.75
2023-02-01T22:58:56.736Z,78.46
2023-02-01T23:01:08.048Z,78.22
2023-02-01T23:03:09.763Z,77.57
2023-02-01T23:05:11.284Z,78.16
2023-02-01T23:07:12.762Z,77.98
2023-02-01T23:09:15.809Z,77.84
2023-02-01T23:11:17.294Z,78.45
2023-02-01T23:13:18.734Z,78.50
2023-02-01T23:15:20.262Z,78.15
2023-02-01T23:17:23.705Z,78.20
2023-02-01T23:19:25.162Z,77.43
2023-02-01T23:21:27.253Z,77.91
2023-02-01T23:23:28.687Z,77.56
2023-02-01T23:25:30.161Z,77.87
2023-02-01T23:27:31.620Z,77.36
2023-02-01T23:29:33.193Z,76.73
2023-02-01T23:31:35.728Z,76.60
2023-02-01T23:33:38.063Z,77.30
2023-02-01T23:35:39.600Z,76.87
2023-02-01T23:37:41.187Z,77.79
2023-02-01T23:39:42.609Z,77.95
2023-02-01T23:41:44.064Z,77.97
2023-02-01T23:43:57.716Z,78.53
2023-02-01T23:45:59.290Z,78.07
2023-02-01T23:48:00.734Z,78.55
2023-02-01T23:50:02.425Z,78.95
2023-02-01T23:52:05.561Z,78.52
2023-02-01T23:54:09.354Z,78.47
2023-02-01T23:56:42.403Z,79.05
2023-02-01T23:58:43.943Z,79.10
